Jo Redwood — LAPN7 — position and weather

sailwx.info

Track history (hours):
 
Tides and Currents Weather Stations Pressure Air Temp Water Temp Dewpoint Dewpoint Depression Visibility Wind Speed Wind Dir Waves Ship Positions

Jo Redwood

Last reported at 2018-Feb-02 15:08 UTC. Time now 2018-Feb-25 01:41 UTC.
Position N 01°16' E 103°23'.
Warning: this ship's position is 22 days out of date.

Length 229 m; draft 8.3 m.

Type: Ship (hazmat cat D). MMSI: 257932000.

Date/timePositionNaut miles runAvg speedWind from/ knotsBaromVisibWave heightAir tempDewpointWater temp
2018-Feb-02 15:08N 01°16' E 103°23'711.2
2018-Feb-02 14:29N 01°13' E 103°30'612.1
2018-Feb-02 14:01N 01°12' E 103°36'611.5
2018-Feb-02 13:30N 01°10' E 103°41'5 9.3
2018-Feb-02 13:01N 01°09' E 103°46'610.9
2018-Feb-02 12:30N 01°12' E 103°51'4 8.7
2018-Feb-02 12:01N 01°14' E 103°54'2 3.6
2018-Feb-02 11:30N 01°16' E 103°55'0 0.3
2018-Feb-02 10:56N 01°16' E 103°55'0 0.0
2018-Feb-02 09:23N 01°16' E 103°55'0 0.0
2018-Feb-02 08:59N 01°16' E 103°55'0 0.0
2018-Feb-02 08:23N 01°16' E 103°55'0 0.1
2018-Feb-02 08:00N 01°16' E 103°55'0 0.1
2018-Feb-02 07:29N 01°16' E 103°55'0 0.1
2018-Feb-02 06:48N 01°16' E 103°55'0 0.2
2018-Feb-02 06:29N 01°16' E 103°55'0 0.1
2018-Feb-02 05:59N 01°16' E 103°55'0 0.1
2018-Feb-02 05:21N 01°16' E 103°55'0 0.0
2018-Feb-02 04:50N 01°16' E 103°55'0 0.1
2018-Feb-02 04:20N 01°16' E 103°55'0 0.0
2018-Feb-02 03:47N 01°16' E 103°55'0 0.1
2018-Feb-02 02:32N 01°16' E 103°55'0 1.3
2018-Feb-02 02:29N 01°16' E 103°55'2 2.8
2018-Feb-02 01:56N 01°15' E 103°56'1 1.2
2018-Feb-02 01:30N 01°15' E 103°57'3 6.6
2018-Feb-02 01:00N 01°13' E 103°54'5 9.1
2018-Feb-02 00:30N 01°11' E 103°50'4 9.1
2018-Feb-02 00:00N 01°08' E 103°46'510.2
2018-Feb-01 23:30N 01°05' E 103°42'510.0
2018-Feb-01 23:00N 01°04' E 103°38'10 9.8
2018-Feb-01 21:58N 01°11' E 103°31'4 8.1
2018-Feb-01 21:30N 01°15' E 103°32'7 0.3
2018-Feb-01 00:55N 01°21' E 103°33'0 0.0
2018-Jan-31 15:19N 01°21' E 103°33'0 0.0
2018-Jan-31 14:58N 01°21' E 103°33'0 0.0
2018-Jan-31 10:43N 01°21' E 103°33'0 0.0
2018-Jan-31 07:20N 01°21' E 103°33'0 0.2
2018-Jan-31 07:00N 01°21' E 103°33'0 0.6
2018-Jan-31 06:30N 01°21' E 103°33'1 3.0
2018-Jan-31 06:01N 01°19' E 103°33'4 8.2
2018-Jan-31 05:31N 01°15' E 103°33'3 5.6
2018-Jan-31 04:59N 01°13' E 103°31'3 5.7
2018-Jan-31 04:30N 01°11' E 103°29'4 7.9
2018-Jan-31 03:57N 01°12' E 103°25'  
Track history (hours):
 
Tides and Currents Weather Stations Pressure Air Temp Water Temp Dewpoint Dewpoint Depression Visibility Wind Speed Wind Dir Waves Ship Positions

Jo Redwood

Last reported at 2018-Feb-02 15:08 UTC. Time now 2018-Feb-25 01:41 UTC.
Position N 01°16' E 103°23'.
Warning: this ship's position is 22 days out of date.

Length 229 m; draft 8.3 m.

Type: Ship (hazmat cat D). MMSI: 257932000.

Date/timePositionNaut miles runAvg speedWind from/ knotsBaromVisibWave heightAir tempDewpointWater temp
2018-Feb-02 15:08N 01°16' E 103°23'711.2
2018-Feb-02 14:29N 01°13' E 103°30'612.1
2018-Feb-02 14:01N 01°12' E 103°36'611.5
2018-Feb-02 13:30N 01°10' E 103°41'5 9.3
2018-Feb-02 13:01N 01°09' E 103°46'610.9
2018-Feb-02 12:30N 01°12' E 103°51'4 8.7
2018-Feb-02 12:01N 01°14' E 103°54'2 3.6
2018-Feb-02 11:30N 01°16' E 103°55'0 0.3
2018-Feb-02 10:56N 01°16' E 103°55'0 0.0
2018-Feb-02 09:23N 01°16' E 103°55'0 0.0
2018-Feb-02 08:59N 01°16' E 103°55'0 0.0
2018-Feb-02 08:23N 01°16' E 103°55'0 0.1
2018-Feb-02 08:00N 01°16' E 103°55'0 0.1
2018-Feb-02 07:29N 01°16' E 103°55'0 0.1
2018-Feb-02 06:48N 01°16' E 103°55'0 0.2
2018-Feb-02 06:29N 01°16' E 103°55'0 0.1
2018-Feb-02 05:59N 01°16' E 103°55'0 0.1
2018-Feb-02 05:21N 01°16' E 103°55'0 0.0
2018-Feb-02 04:50N 01°16' E 103°55'0 0.1
2018-Feb-02 04:20N 01°16' E 103°55'0 0.0
2018-Feb-02 03:47N 01°16' E 103°55'0 0.1
2018-Feb-02 02:32N 01°16' E 103°55'0 1.3
2018-Feb-02 02:29N 01°16' E 103°55'2 2.8
2018-Feb-02 01:56N 01°15' E 103°56'1 1.2
2018-Feb-02 01:30N 01°15' E 103°57'3 6.6
2018-Feb-02 01:00N 01°13' E 103°54'5 9.1
2018-Feb-02 00:30N 01°11' E 103°50'4 9.1
2018-Feb-02 00:00N 01°08' E 103°46'510.2
2018-Feb-01 23:30N 01°05' E 103°42'510.0
2018-Feb-01 23:00N 01°04' E 103°38'10 9.8
2018-Feb-01 21:58N 01°11' E 103°31'4 8.1
2018-Feb-01 21:30N 01°15' E 103°32'7 0.3
2018-Feb-01 00:55N 01°21' E 103°33'0 0.0
2018-Jan-31 15:19N 01°21' E 103°33'0 0.0
2018-Jan-31 14:58N 01°21' E 103°33'0 0.0
2018-Jan-31 10:43N 01°21' E 103°33'0 0.0
2018-Jan-31 07:20N 01°21' E 103°33'0 0.2
2018-Jan-31 07:00N 01°21' E 103°33'0 0.6
2018-Jan-31 06:30N 01°21' E 103°33'1 3.0
2018-Jan-31 06:01N 01°19' E 103°33'4 8.2
2018-Jan-31 05:31N 01°15' E 103°33'3 5.6
2018-Jan-31 04:59N 01°13' E 103°31'3 5.7
2018-Jan-31 04:30N 01°11' E 103°29'4 7.9
2018-Jan-31 03:57N 01°12' E 103°25'  

Dump ship's entire track history